Atqasuk Edward Burnell Sr Memorial Airport
PATQ : now visible

Airfield :











YOU CAN JOIN US ON...

 
LOGIN :

Register | Disclaimer

   EN    FR    IT 

 









Legend :    VFR   Marginal VFR   IFR   Intensive IFR   Very Intensive IFR
Visi :
Ceiling :
>= 8 km
>= 3000ft
5 to 8 km
1000 to 3000 ft
1500m to 5 km
500 to 1000 ft
800 to 1500m
200 to 500 ft
< 800m
< 200 ft
Symbols :   Thunderstorms  Fog  Heavy snow  Heavy precipitations  Wind > 20 kt






- Airport Elevation : 96 ft
- IATA code : ATK


PATQ - Atqasuk Edward Burnell Sr Memorial

CURRENT METAR :
  • 062356Z AUTO 29023KT 1 1/4SM -SN OVC013 M14/M17 A2956 RMK AO2 PK WND 30028/2304 SLP015 P0000 60000 T11391167 11122 21139 51021 FZRANO TSNO

EXPIRED METARs :
  • 062343Z AUTO 30023KT 1SM -SN BR OVC013 M14/M16 A2955 RMK AO2 PK WND 30028/2304 P0000 FZRANO TSNO
  • 062252Z AUTO 29024KT 3/4SM -SN OVC013 M13/M16 A2952 RMK AO2 PK WND 29026/2252 P0000 FZRANO TSNO
  • 062238Z AUTO 29023KT 1 1/4SM -SN BR BKN011 M13/M16 A2952 RMK AO2 P0000 FZRANO TSNO
  • 062214Z AUTO 30022KT 3/4SM -SN BR OVC013 M13/M15 A2951 RMK AO2 P0000 FZRANO TSNO
  • 062156Z AUTO 30024KT 3/4SM -SN BR OVC013 M13/M16 A2950 RMK AO2 PK WND 30026/2156 SLP994 P0000 T11331156 FZRANO TSNO

TAF N/A



MET'MAP, your aeronautical weather chart ! - Copyright ORBIFLY December 2007 - Disclaimer

ORBIFLY MET'MAP TEAM :

Programming & Development : Alexandra Zaïnal
Concept & original design : Baudouin d'Aumeries
Assistance for programming : Marc-Olivier Méhu
Technical & hardware support : Manuel Goepfert

Contact : metmap@orbifly.com




SOURCES & CREDITS :

   NOAA       Earth
Advisory